Wheatland, Pennsylvania
Current Conditions -  °F | °C
As of 11:02 PM on Thursday 18 Dec 2014 (Local Time) from KYNG Reporting Station
Light Snow Light Snow  
Wind Chill: 19°   Ceiling: 400
Heat Index: 28°   Visibility: 2.5mi
Dew Point: 26°   Wind: 9mph
Humidity: 92%   Direction: 250°WSW
Pressure: 30.13"   Gusts: NA
Location:  41.2°N, 80.5°W
Report Text: KYNG 190402Z 25008KT 2 1/2SM -FZDZSN BR OVC004 M02/M03 A3013 RMK AO2 P0000 I1000 T10221033
Loading
Personal Weather Stations






























Interactive Weather Map New forecast layout! Learn more

10-Day Weather Forecast

Advertisements
Track Severe Weather on mobile